createdAt,value
2018-11-11T00:00:01.236Z,10.60
2018-11-11T00:03:05.917Z,10.60
2018-11-11T00:06:10.208Z,10.60
2018-11-11T00:09:14.472Z,10.60
2018-11-11T00:12:18.742Z,10.60
2018-11-11T00:15:23.042Z,10.60
2018-11-11T00:18:30.749Z,10.70
2018-11-11T00:21:35.103Z,10.70
2018-11-11T00:24:39.382Z,10.70
2018-11-11T00:27:43.662Z,10.70
2018-11-11T00:30:47.904Z,10.70
2018-11-11T00:33:52.185Z,10.70
2018-11-11T00:36:56.506Z,10.70
2018-11-11T00:40:00.768Z,10.70
2018-11-11T00:43:05.107Z,10.70
2018-11-11T00:46:09.396Z,10.80
2018-11-11T00:49:14.862Z,10.80
2018-11-11T00:52:19.099Z,10.90
2018-11-11T00:55:23.356Z,10.80
2018-11-11T00:58:27.595Z,10.80
2018-11-11T01:01:31.914Z,10.80
2018-11-11T01:04:36.159Z,10.80
2018-11-11T01:07:41.362Z,10.90
2018-11-11T01:10:45.636Z,10.80
2018-11-11T01:13:49.918Z,10.90
2018-11-11T01:16:54.226Z,10.80
2018-11-11T01:19:58.498Z,10.90
2018-11-11T01:23:02.793Z,10.90
2018-11-11T01:26:07.164Z,10.80
2018-11-11T01:29:11.422Z,10.90
2018-11-11T01:32:15.705Z,10.80
2018-11-11T01:35:20.009Z,10.90
2018-11-11T01:38:24.293Z,10.90
2018-11-11T01:41:28.597Z,10.80
2018-11-11T01:44:32.922Z,10.80
2018-11-11T01:47:37.208Z,10.90
2018-11-11T01:50:41.505Z,10.80
2018-11-11T01:53:45.778Z,10.80
2018-11-11T01:56:50.073Z,10.80
2018-11-11T01:59:54.348Z,10.80
2018-11-11T02:02:58.638Z,10.80
2018-11-11T02:06:02.943Z,10.80
2018-11-11T02:09:10.129Z,10.80
2018-11-11T02:12:14.389Z,10.80
2018-11-11T02:15:19.080Z,10.80
2018-11-11T02:18:23.363Z,10.80
2018-11-11T02:21:27.648Z,10.80
2018-11-11T02:24:31.983Z,10.80
2018-11-11T02:27:36.234Z,10.80
2018-11-11T02:30:40.508Z,10.80
2018-11-11T02:33:44.768Z,10.80
2018-11-11T02:36:49.096Z,10.80
2018-11-11T02:39:53.377Z,10.80
2018-11-11T02:42:57.657Z,10.70
2018-11-11T02:46:01.965Z,10.80
2018-11-11T02:49:06.281Z,10.70
2018-11-11T02:52:10.662Z,10.70
2018-11-11T02:55:15.329Z,10.70
2018-11-11T02:58:19.583Z,10.70
2018-11-11T03:01:23.853Z,10.70
2018-11-11T03:04:28.229Z,10.70
2018-11-11T03:07:32.457Z,10.70
2018-11-11T03:10:36.779Z,10.70
2018-11-11T03:13:41.013Z,10.70
2018-11-11T03:16:45.290Z,10.70
2018-11-11T03:19:49.583Z,10.70
2018-11-11T03:22:53.845Z,10.70
2018-11-11T03:25:58.205Z,10.70
2018-11-11T03:29:02.452Z,10.70
2018-11-11T03:32:06.931Z,10.70
2018-11-11T03:35:12.428Z,10.70
2018-11-11T03:38:16.726Z,10.70
2018-11-11T03:41:21.014Z,10.70
2018-11-11T03:44:25.330Z,10.70
2018-11-11T03:47:29.616Z,10.70
2018-11-11T03:50:33.910Z,10.70
2018-11-11T03:53:38.545Z,10.70
2018-11-11T03:56:42.795Z,10.70
2018-11-11T03:59:47.032Z,10.60
2018-11-11T04:02:51.289Z,10.70
2018-11-11T04:05:55.613Z,10.70
2018-11-11T04:08:59.887Z,10.60
2018-11-11T04:12:04.221Z,10.60
2018-11-11T04:15:10.406Z,10.70
2018-11-11T04:18:14.720Z,10.60
2018-11-11T04:21:18.977Z,10.60
2018-11-11T04:24:23.265Z,10.60
2018-11-11T04:27:27.542Z,10.60
2018-11-11T04:30:31.838Z,10.60
2018-11-11T04:33:36.132Z,10.60
2018-11-11T04:36:40.592Z,10.60
2018-11-11T04:39:44.861Z,10.60
2018-11-11T04:42:49.127Z,10.60
2018-11-11T04:45:53.411Z,10.60
2018-11-11T04:48:57.664Z,10.60
2018-11-11T04:52:01.933Z,10.60
2018-11-11T04:55:06.689Z,10.60
2018-11-11T04:58:11.015Z,10.60
2018-11-11T05:01:15.339Z,10.70
2018-11-11T05:04:19.555Z,10.70
2018-11-11T05:07:23.847Z,10.60
2018-11-11T05:10:28.125Z,10.60
2018-11-11T05:13:32.470Z,10.70
2018-11-11T05:16:36.778Z,10.60
2018-11-11T05:19:41.053Z,10.60
2018-11-11T05:22:45.345Z,10.60
2018-11-11T05:25:49.624Z,10.60
2018-11-11T05:28:53.929Z,10.60
2018-11-11T05:31:58.197Z,10.50
2018-11-11T05:35:02.456Z,10.50
2018-11-11T05:38:06.729Z,10.50
2018-11-11T05:41:11.042Z,10.50
2018-11-11T05:44:15.307Z,10.50
2018-11-11T05:47:19.632Z,10.50
2018-11-11T05:50:23.910Z,10.40
2018-11-11T05:53:28.184Z,10.40
2018-11-11T05:56:32.456Z,10.40
2018-11-11T05:59:36.784Z,10.50
2018-11-11T06:02:41.046Z,10.40
2018-11-11T06:05:45.324Z,10.50
2018-11-11T06:08:49.939Z,10.50
2018-11-11T06:11:54.284Z,10.50
2018-11-11T06:14:58.762Z,10.60
2018-11-11T06:18:03.016Z,10.50
2018-11-11T06:21:07.310Z,10.50
2018-11-11T06:24:11.567Z,10.50
2018-11-11T06:27:15.861Z,10.60
2018-11-11T06:30:20.143Z,10.40
2018-11-11T06:33:24.438Z,10.60
2018-11-11T06:36:28.857Z,10.60
2018-11-11T06:39:33.134Z,10.60
2018-11-11T06:42:37.592Z,10.70
2018-11-11T06:45:41.903Z,10.60
2018-11-11T06:48:46.178Z,10.60
2018-11-11T06:51:50.450Z,10.60
2018-11-11T06:54:54.737Z,10.60
2018-11-11T06:57:59.077Z,10.60
2018-11-11T07:01:03.382Z,10.60
2018-11-11T07:04:07.640Z,10.60
2018-11-11T07:07:11.934Z,10.60
2018-11-11T07:10:16.240Z,10.70
2018-11-11T07:13:20.491Z,10.70
2018-11-11T07:16:24.795Z,10.70
2018-11-11T07:19:29.072Z,10.70
2018-11-11T07:22:33.368Z,10.70
2018-11-11T07:25:37.635Z,10.70
2018-11-11T07:28:41.908Z,10.70
2018-11-11T07:31:46.174Z,10.70
2018-11-11T07:34:50.463Z,10.70
2018-11-11T07:37:54.739Z,10.70
2018-11-11T07:40:59.003Z,10.70
2018-11-11T07:44:03.745Z,10.70
2018-11-11T07:47:08.029Z,10.70
2018-11-11T07:50:12.627Z,10.70
2018-11-11T07:53:16.939Z,10.70
2018-11-11T07:56:21.215Z,10.70
2018-11-11T07:59:25.489Z,10.80
2018-11-11T08:02:29.792Z,10.80
2018-11-11T08:05:34.047Z,10.80
2018-11-11T08:08:38.338Z,10.80
2018-11-11T08:11:54.713Z,10.80
2018-11-11T08:14:58.974Z,10.90
2018-11-11T08:18:03.231Z,11.00
2018-11-11T08:21:07.538Z,11.10
2018-11-11T08:24:11.835Z,11.20
2018-11-11T08:27:16.109Z,11.20
2018-11-11T08:30:20.387Z,11.30
2018-11-11T08:33:24.733Z,11.30
2018-11-11T08:36:28.972Z,11.30
2018-11-11T08:39:33.288Z,11.40
2018-11-11T08:42:37.621Z,11.40
2018-11-11T08:45:41.921Z,11.40
2018-11-11T08:48:46.205Z,11.50
2018-11-11T08:51:50.456Z,11.50
2018-11-11T08:54:54.704Z,11.50
2018-11-11T08:57:59.055Z,11.50
2018-11-11T09:01:03.248Z,11.60
2018-11-11T09:04:07.695Z,11.60
2018-11-11T09:07:11.940Z,11.60
2018-11-11T09:10:16.178Z,11.70
2018-11-11T09:13:20.449Z,11.70
2018-11-11T09:16:24.737Z,11.70
2018-11-11T09:19:29.008Z,11.70
2018-11-11T09:22:33.290Z,11.80
2018-11-11T09:25:37.559Z,11.80
2018-11-11T09:28:41.837Z,11.80
2018-11-11T09:31:46.100Z,11.80
2018-11-11T09:34:50.346Z,11.90
2018-11-11T09:37:54.621Z,12.10
2018-11-11T09:40:58.879Z,12.20
2018-11-11T09:44:03.163Z,12.20
2018-11-11T09:47:07.426Z,12.20
2018-11-11T09:50:14.128Z,12.20
2018-11-11T09:53:18.413Z,12.30
2018-11-11T09:56:22.659Z,12.30
2018-11-11T09:59:26.944Z,12.40
2018-11-11T10:02:31.253Z,12.40
2018-11-11T10:05:40.227Z,12.40
2018-11-11T10:09:02.608Z,12.40
2018-11-11T10:12:12.113Z,12.40
2018-11-11T10:15:29.047Z,12.40
2018-11-11T10:18:44.189Z,12.40
2018-11-11T10:21:56.545Z,12.40
2018-11-11T10:25:35.984Z,12.30
2018-11-11T10:28:48.964Z,12.30
2018-11-11T10:31:58.446Z,12.30
2018-11-11T10:35:11.024Z,12.20
2018-11-11T10:38:23.573Z,12.10
2018-11-11T10:42:02.338Z,12.10
2018-11-11T10:45:10.826Z,12.10
2018-11-11T10:48:18.920Z,12.00
2018-11-11T10:51:23.165Z,12.00
2018-11-11T10:54:27.503Z,12.10
2018-11-11T10:57:31.721Z,12.10
2018-11-11T11:00:41.305Z,12.10
2018-11-11T11:03:45.546Z,12.10
2018-11-11T11:06:55.006Z,12.10
2018-11-11T11:09:59.264Z,12.10
2018-11-11T11:13:03.562Z,12.20
2018-11-11T11:16:07.850Z,12.20
2018-11-11T11:19:12.087Z,12.20
2018-11-11T11:22:16.335Z,12.20
2018-11-11T11:25:20.592Z,12.30
2018-11-11T11:28:24.833Z,12.30
2018-11-11T11:31:29.132Z,12.30
2018-11-11T11:34:33.382Z,12.30
2018-11-11T11:37:38.163Z,12.20
2018-11-11T11:40:42.537Z,12.20
2018-11-11T11:43:46.804Z,12.20
2018-11-11T11:46:51.077Z,12.20
2018-11-11T11:49:55.333Z,12.20
2018-11-11T11:52:59.668Z,12.20
2018-11-11T11:56:03.869Z,12.20
2018-11-11T11:59:08.153Z,12.10
2018-11-11T12:02:12.477Z,12.10
2018-11-11T12:05:16.675Z,12.10
2018-11-11T12:08:20.928Z,12.00
2018-11-11T12:11:25.168Z,11.90
2018-11-11T12:14:29.399Z,11.90
2018-11-11T12:17:33.633Z,11.90
2018-11-11T12:20:38.349Z,11.90
2018-11-11T12:23:42.609Z,11.90
2018-11-11T12:26:46.846Z,11.90
2018-11-11T12:29:51.112Z,11.90
2018-11-11T12:32:55.384Z,11.90
2018-11-11T12:35:59.629Z,11.80
2018-11-11T12:39:04.372Z,11.70
2018-11-11T12:42:08.593Z,11.70
2018-11-11T12:45:13.604Z,11.70
2018-11-11T12:48:17.824Z,11.70
2018-11-11T12:51:22.110Z,11.80
2018-11-11T12:54:26.371Z,11.80
2018-11-11T12:57:30.645Z,11.80
2018-11-11T13:00:34.901Z,11.80
2018-11-11T13:03:39.161Z,11.80
2018-11-11T13:06:43.414Z,11.80
2018-11-11T13:09:47.654Z,11.90
2018-11-11T13:12:51.938Z,11.80
2018-11-11T13:15:56.225Z,11.70
2018-11-11T13:19:00.496Z,11.70
2018-11-11T13:22:05.033Z,11.70
2018-11-11T13:25:10.418Z,11.60
2018-11-11T13:28:14.674Z,11.60
2018-11-11T13:31:18.959Z,11.60
2018-11-11T13:34:23.232Z,11.60
2018-11-11T13:37:27.540Z,11.60
2018-11-11T13:40:31.789Z,11.60
2018-11-11T13:43:36.328Z,11.60
2018-11-11T13:46:40.740Z,11.60
2018-11-11T13:49:44.843Z,11.70
2018-11-11T13:52:49.396Z,11.70
2018-11-11T13:55:53.699Z,11.70
2018-11-11T13:58:57.977Z,11.80
2018-11-11T14:02:02.236Z,11.80
2018-11-11T14:05:07.405Z,11.80
2018-11-11T14:08:11.697Z,11.80
2018-11-11T14:11:16.092Z,11.80
2018-11-11T14:14:20.194Z,11.80
2018-11-11T14:17:24.461Z,11.80
2018-11-11T14:20:28.755Z,11.80
2018-11-11T14:23:33.019Z,11.80
2018-11-11T14:26:37.301Z,11.80
2018-11-11T14:29:41.630Z,11.80
2018-11-11T14:32:46.801Z,11.80
2018-11-11T14:35:51.077Z,11.80
2018-11-11T14:38:55.354Z,11.80
2018-11-11T14:41:59.597Z,11.90
2018-11-11T14:45:03.855Z,11.80
2018-11-11T14:48:08.117Z,11.80
2018-11-11T14:51:12.389Z,11.80
2018-11-11T14:54:16.631Z,11.80
2018-11-11T14:57:20.884Z,11.70
2018-11-11T15:00:32.643Z,11.80
2018-11-11T15:03:37.034Z,11.80
2018-11-11T15:06:41.288Z,11.80
2018-11-11T15:09:45.537Z,11.80
2018-11-11T15:12:49.802Z,11.80
2018-11-11T15:15:54.048Z,11.80
2018-11-11T15:18:58.357Z,11.80
2018-11-11T15:22:02.617Z,11.80
2018-11-11T15:25:09.934Z,11.80
2018-11-11T15:28:14.172Z,11.70
2018-11-11T15:31:18.575Z,11.80
2018-11-11T15:34:22.764Z,11.80
2018-11-11T15:37:27.093Z,11.70
2018-11-11T15:40:33.517Z,11.70
2018-11-11T15:43:37.785Z,11.80
2018-11-11T15:46:42.455Z,11.70
2018-11-11T15:49:46.726Z,11.70
2018-11-11T15:52:53.241Z,11.70
2018-11-11T15:55:57.495Z,11.70
2018-11-11T15:59:01.787Z,11.70
2018-11-11T16:02:06.445Z,11.80
2018-11-11T16:05:11.564Z,11.80
2018-11-11T16:08:16.005Z,11.80
2018-11-11T16:11:20.240Z,11.70
2018-11-11T16:14:24.512Z,11.80
2018-11-11T16:17:28.786Z,11.80
2018-11-11T16:20:33.154Z,11.80
2018-11-11T16:23:37.487Z,11.70
2018-11-11T16:26:41.865Z,11.70
2018-11-11T16:29:47.926Z,11.60
2018-11-11T16:32:53.221Z,11.50
2018-11-11T16:35:59.414Z,11.50
2018-11-11T16:39:07.710Z,11.50
2018-11-11T16:42:14.619Z,11.40
2018-11-11T16:45:20.381Z,11.40
2018-11-11T16:48:24.643Z,11.40
2018-11-11T16:51:28.974Z,11.40
2018-11-11T16:54:33.323Z,11.40
2018-11-11T16:57:37.615Z,11.40
2018-11-11T17:00:41.857Z,11.40
2018-11-11T17:03:46.110Z,11.40
2018-11-11T17:06:50.352Z,11.40
2018-11-11T17:09:54.610Z,11.40
2018-11-11T17:13:00.285Z,11.40
2018-11-11T17:16:04.559Z,11.40
2018-11-11T17:19:08.816Z,11.30
2018-11-11T17:22:13.142Z,11.40
2018-11-11T17:25:18.340Z,11.30
2018-11-11T17:28:22.606Z,11.30
2018-11-11T17:31:26.841Z,11.30
2018-11-11T17:34:31.110Z,11.30
2018-11-11T17:37:35.472Z,11.20
2018-11-11T17:40:39.749Z,11.20
2018-11-11T17:43:44.047Z,11.10
2018-11-11T17:46:48.298Z,11.10
2018-11-11T17:49:52.586Z,11.10
2018-11-11T17:52:57.071Z,11.00
2018-11-11T17:56:01.415Z,11.00
2018-11-11T17:59:05.921Z,11.00
2018-11-11T18:02:10.197Z,11.00
2018-11-11T18:05:16.290Z,11.00
2018-11-11T18:08:20.551Z,11.00
2018-11-11T18:11:24.796Z,11.00
2018-11-11T18:14:29.036Z,11.00
2018-11-11T18:17:33.299Z,11.00
2018-11-11T18:20:37.592Z,11.00
2018-11-11T18:23:41.862Z,11.00
2018-11-11T18:26:46.178Z,11.00
2018-11-11T18:29:50.454Z,11.00
2018-11-11T18:32:54.717Z,11.00
2018-11-11T18:35:58.986Z,11.00
2018-11-11T18:39:03.253Z,11.00
2018-11-11T18:42:07.526Z,11.00
2018-11-11T18:45:14.405Z,11.10
2018-11-11T18:48:18.670Z,11.10
2018-11-11T18:51:22.905Z,11.10
2018-11-11T18:54:27.165Z,11.10
2018-11-11T18:57:31.482Z,11.10
2018-11-11T19:00:36.195Z,11.10
2018-11-11T19:03:40.627Z,11.10
2018-11-11T19:06:45.010Z,11.10
2018-11-11T19:09:49.283Z,11.10
2018-11-11T19:12:54.787Z,11.10
2018-11-11T19:15:59.025Z,11.10
2018-11-11T19:19:03.974Z,11.00
2018-11-11T19:22:08.241Z,11.00
2018-11-11T19:25:15.291Z,10.90
2018-11-11T19:28:19.571Z,10.90
2018-11-11T19:31:23.792Z,10.90
2018-11-11T19:34:28.038Z,10.90
2018-11-11T19:37:32.416Z,10.90
2018-11-11T19:40:36.684Z,11.00
2018-11-11T19:43:40.944Z,11.00
2018-11-11T19:46:45.247Z,11.00
2018-11-11T19:49:49.591Z,11.00
2018-11-11T19:52:54.786Z,11.00
2018-11-11T19:55:59.093Z,11.10
2018-11-11T19:59:03.316Z,11.10
2018-11-11T20:02:08.027Z,11.00
2018-11-11T20:05:13.492Z,11.10
2018-11-11T20:08:17.748Z,11.10
2018-11-11T20:11:22.018Z,11.10
2018-11-11T20:14:26.317Z,11.00
2018-11-11T20:17:30.603Z,11.00
2018-11-11T20:20:37.376Z,10.90
2018-11-11T20:23:41.671Z,10.80
2018-11-11T20:26:45.885Z,10.80
2018-11-11T20:29:50.134Z,10.70
2018-11-11T20:32:54.420Z,10.70
2018-11-11T20:35:58.706Z,10.70
2018-11-11T20:39:02.973Z,10.60
2018-11-11T20:42:07.228Z,10.60
2018-11-11T20:45:12.625Z,10.60
2018-11-11T20:48:16.906Z,10.60
2018-11-11T20:51:21.178Z,10.60
2018-11-11T20:54:25.429Z,10.60
2018-11-11T20:57:30.613Z,10.60
2018-11-11T21:00:36.379Z,10.50
2018-11-11T21:03:40.880Z,10.50
2018-11-11T21:06:45.152Z,10.50
2018-11-11T21:09:49.426Z,10.50
2018-11-11T21:12:53.755Z,10.40
2018-11-11T21:15:57.990Z,10.40
2018-11-11T21:19:02.347Z,10.30
2018-11-11T21:22:11.440Z,10.30
2018-11-11T21:25:15.736Z,10.20
2018-11-11T21:28:20.070Z,10.20
2018-11-11T21:31:24.475Z,10.20
2018-11-11T21:34:28.854Z,10.20
2018-11-11T21:37:33.204Z,10.10
2018-11-11T21:40:37.501Z,10.10
2018-11-11T21:43:42.584Z,10.10
2018-11-11T21:46:46.851Z,10.00
2018-11-11T21:49:51.131Z,10.00
2018-11-11T21:53:09.983Z,9.90
2018-11-11T21:56:14.410Z,9.90
2018-11-11T21:59:18.612Z,9.90
2018-11-11T22:02:22.897Z,10.00
2018-11-11T22:05:27.197Z,10.00
2018-11-11T22:08:31.436Z,9.90
2018-11-11T22:11:35.725Z,9.90
2018-11-11T22:14:39.962Z,9.90
2018-11-11T22:17:44.196Z,9.80
2018-11-11T22:20:48.874Z,9.80
2018-11-11T22:23:53.139Z,9.70
2018-11-11T22:26:57.411Z,9.70
2018-11-11T22:30:01.645Z,9.70
2018-11-11T22:33:05.937Z,9.70
2018-11-11T22:36:10.165Z,9.70
2018-11-11T22:39:14.437Z,9.60
2018-11-11T22:42:18.728Z,9.60
2018-11-11T22:45:22.977Z,9.60
2018-11-11T22:48:27.249Z,9.50
2018-11-11T22:51:31.564Z,9.50
2018-11-11T22:54:35.801Z,9.50
2018-11-11T22:57:40.403Z,9.50
2018-11-11T23:00:49.932Z,9.40
2018-11-11T23:03:54.185Z,9.30
2018-11-11T23:06:58.420Z,9.30
2018-11-11T23:10:02.688Z,9.30
2018-11-11T23:13:07.081Z,9.20
2018-11-11T23:16:11.365Z,9.20
2018-11-11T23:19:15.856Z,9.10
2018-11-11T23:22:20.094Z,9.10
2018-11-11T23:25:24.364Z,9.10
2018-11-11T23:28:28.682Z,9.10
2018-11-11T23:31:32.841Z,9.10
2018-11-11T23:34:37.120Z,9.00
2018-11-11T23:37:42.403Z,9.00
2018-11-11T23:40:46.673Z,9.00
2018-11-11T23:43:50.932Z,9.00
2018-11-11T23:46:55.176Z,9.10
2018-11-11T23:49:59.411Z,9.00
2018-11-11T23:53:03.666Z,9.10
2018-11-11T23:56:07.952Z,9.00
2018-11-11T23:59:12.193Z,9.00
